Time;durP1;ratioP1;P1;durP2;ratioP2;P2;SDS_P1;SDS_P2;PMS_P1;PMS_P2;Temp;Humidity;BMP_temperature;BMP_pressure;BME280_temperature;BME280_humidity;BME280_pressure;Samples;Min_cycle;Max_cycle;Signal;HPM_P1;HPM_P2
2024/02/12 00:01:38;;;;;;;23.70;16.60;;;;;;;5.52;92.21;99207.59;105206;1259;75561;-69
2024/02/12 00:04:07;;;;;;;21.60;15.90;;;;;;;5.54;92.34;99208.30;108884;1254;138992;-69
2024/02/12 00:06:35;;;;;;;21.50;16.40;;;;;;;5.55;92.18;99207.11;109033;1261;71099;-69
2024/02/12 00:09:03;;;;;;;23.30;16.20;;;;;;;5.54;92.07;99202.92;108965;1254;139025;-68
2024/02/12 00:11:30;;;;;;;24.30;16.00;;;;;;;5.53;92.02;99205.67;108940;1254;60324;-69
2024/02/12 00:13:57;;;;;;;23.70;16.20;;;;;;;5.53;91.99;99202.70;108722;1256;139348;-68
2024/02/12 00:16:26;;;;;;;26.20;16.60;;;;;;;5.52;91.99;99200.08;104862;1262;66519;-68
2024/02/12 00:18:53;;;;;;;23.70;17.40;;;;;;;5.52;92.00;99198.19;109001;1256;72625;-67
2024/02/12 00:21:19;;;;;;;24.30;17.20;;;;;;;5.53;91.99;99199.23;108837;1257;139025;-68
2024/02/12 00:23:46;;;;;;;23.80;17.70;;;;;;;5.51;91.96;99198.36;108989;1257;59808;-70
2024/02/12 00:26:14;;;;;;;20.30;15.80;;;;;;;5.51;91.96;99197.29;106496;1256;139002;-69
2024/02/12 00:28:41;;;;;;;22.70;17.80;;;;;;;5.53;92.13;99196.61;108940;1257;66498;-68
2024/02/12 00:31:12;;;;;;;22.80;16.20;;;;;;;5.56;92.18;99193.92;105918;1262;71763;-68
2024/02/12 00:33:40;;;;;;;23.10;16.20;;;;;;;5.58;92.18;99192.92;104868;1260;138727;-69
2024/02/12 00:36:08;;;;;;;25.70;16.30;;;;;;;5.60;92.14;99192.77;105905;1262;62050;-68
2024/02/12 00:38:39;;;;;;;27.30;16.50;;;;;;;5.59;92.12;99189.63;104690;1262;138840;-70
2024/02/12 00:41:14;;;;;;;20.60;15.70;;;;;;;5.56;91.99;99191.14;104853;1261;67229;-68
2024/02/12 00:43:44;;;;;;;21.40;16.40;;;;;;;5.55;92.09;99189.20;104763;1262;70999;-70
2024/02/12 00:46:12;;;;;;;23.60;17.00;;;;;;;5.57;92.30;99188.71;104674;1260;62091;-69
2024/02/12 00:48:39;;;;;;;23.30;16.70;;;;;;;5.59;92.26;99188.41;108996;1256;60340;-70
2024/02/12 00:51:05;;;;;;;25.90;16.00;;;;;;;5.59;92.31;99186.68;105283;1259;139395;-69
2024/02/12 00:53:32;;;;;;;26.30;15.80;;;;;;;5.62;92.46;99185.86;104949;1260;66128;-69
2024/02/12 00:56:00;;;;;;;24.80;16.70;;;;;;;5.60;92.26;99181.30;104599;1263;139221;-68
2024/02/12 00:58:27;;;;;;;23.80;16.10;;;;;;;5.60;92.33;99181.13;104749;1260;60828;-69
2024/02/12 01:00:53;;;;;;;21.50;16.50;;;;;;;5.61;92.28;99180.77;104952;1260;61980;-69
2024/02/12 01:03:22;;;;;;;26.30;17.60;;;;;;;5.60;92.34;99180.24;104767;1263;139059;-69
2024/02/12 01:05:49;;;;;;;21.10;16.90;;;;;;;5.52;91.99;99177.13;109047;1257;65060;-69
2024/02/12 01:08:15;;;;;;;22.00;17.90;;;;;;;5.47;92.11;99176.50;108525;1256;139401;-68
2024/02/12 01:10:42;;;;;;;26.30;18.10;;;;;;;5.44;92.17;99174.88;104856;1262;62090;-69
2024/02/12 01:13:10;;;;;;;24.00;18.00;;;;;;;5.45;92.26;99172.11;104888;1261;62052;-70
2024/02/12 01:15:37;;;;;;;22.40;18.00;;;;;;;5.45;92.44;99168.82;106452;1254;138738;-69
2024/02/12 01:18:07;;;;;;;25.40;17.30;;;;;;;5.46;92.48;99167.96;105102;1257;67136;-68
2024/02/12 01:20:35;;;;;;;27.00;17.90;;;;;;;5.48;92.56;99167.48;108768;1254;139293;-69
2024/02/12 01:23:02;;;;;;;23.70;17.80;;;;;;;5.50;92.52;99167.16;105965;1259;62117;-69
2024/02/12 01:25:29;;;;;;;25.40;17.30;;;;;;;5.50;92.56;99165.61;106027;1260;62069;-69
2024/02/12 01:27:56;;;;;;;27.00;18.80;;;;;;;5.46;92.39;99167.28;105702;1258;139291;-69
2024/02/12 01:30:23;;;;;;;27.10;17.90;;;;;;;5.44;92.47;99163.23;104859;1254;64681;-69
2024/02/12 01:32:50;;;;;;;24.80;17.60;;;;;;;5.46;92.65;99163.27;105022;1259;139020;-71
2024/02/12 01:35:17;;;;;;;25.20;18.20;;;;;;;5.48;92.65;99166.09;105117;1268;62142;-69
2024/02/12 01:37:43;;;;;;;26.80;18.40;;;;;;;5.50;92.72;99166.99;105214;1254;62168;-69
2024/02/12 01:40:11;;;;;;;23.10;17.80;;;;;;;5.50;92.74;99161.95;105134;1260;76563;-68
2024/02/12 01:42:38;;;;;;;25.00;18.40;;;;;;;5.52;92.85;99164.42;105327;1260;65022;-70
2024/02/12 01:45:13;;;;;;;23.90;16.80;;;;;;;5.52;92.75;99159.56;105045;1255;138762;-69
2024/02/12 01:47:41;;;;;;;25.80;17.50;;;;;;;5.56;92.91;99162.07;109248;1254;59773;-69
2024/02/12 01:50:12;;;;;;;26.70;18.00;;;;;;;5.58;92.81;99161.77;106596;1260;139504;-68
2024/02/12 01:52:48;;;;;;;25.70;17.30;;;;;;;5.58;92.87;99157.60;107491;1258;75505;-69
2024/02/12 01:55:16;;;;;;;22.40;17.00;;;;;;;5.61;92.84;99153.11;105018;1264;65663;-68
2024/02/12 01:57:42;;;;;;;22.40;17.10;;;;;;;5.62;92.84;99152.27;104859;1260;138918;-68
2024/02/12 02:00:11;;;;;;;25.30;16.50;;;;;;;5.64;92.85;99151.08;104870;1264;62421;-69
2024/02/12 02:02:43;;;;;;;22.60;16.50;;;;;;;5.62;92.75;99151.41;109126;1254;138831;-69
2024/02/12 02:05:13;;;;;;;22.30;16.50;;;;;;;5.63;92.86;99146.73;109244;1258;75478;-68
2024/02/12 02:07:40;;;;;;;19.40;15.80;;;;;;;5.63;92.80;99147.77;109237;1254;66950;-69
2024/02/12 02:10:09;;;;;;;21.40;16.00;;;;;;;5.63;92.67;99147.23;105124;1271;139026;-69
2024/02/12 02:12:36;;;;;;;23.20;16.00;;;;;;;5.62;92.93;99143.40;107469;1256;61918;-69
2024/02/12 02:15:07;;;;;;;24.30;16.20;;;;;;;5.63;92.86;99148.81;105054;1254;139196;-69
2024/02/12 02:17:33;;;;;;;23.60;16.30;;;;;;;5.65;92.98;99143.64;105082;1259;76448;-68
2024/02/12 02:20:00;;;;;;;25.90;16.20;;;;;;;5.68;93.00;99140.19;104801;1264;139592;-67
2024/02/12 02:22:30;;;;;;;22.60;16.40;;;;;;;5.69;92.93;99140.91;105220;1260;73972;-69
2024/02/12 02:24:58;;;;;;;23.90;16.40;;;;;;;5.69;92.96;99141.77;104924;1263;62069;-70
2024/02/12 02:27:28;;;;;;;24.20;18.00;;;;;;;5.69;93.10;99140.91;104966;1254;138875;-69
2024/02/12 02:29:54;;;;;;;22.10;16.70;;;;;;;5.68;93.02;99135.67;104879;1263;75806;-68
2024/02/12 02:32:21;;;;;;;22.10;16.90;;;;;;;5.71;93.19;99134.17;104868;1262;139440;-69
2024/02/12 02:34:48;;;;;;;24.20;17.30;;;;;;;5.69;93.07;99131.67;104879;1260;71416;-69
2024/02/12 02:37:15;;;;;;;23.70;17.00;;;;;;;5.66;92.98;99133.90;104804;1264;62156;-69
2024/02/12 02:39:42;;;;;;;23.50;16.40;;;;;;;5.62;93.05;99129.82;104981;1254;138857;-69
2024/02/12 02:42:09;;;;;;;24.70;17.90;;;;;;;5.60;93.10;99133.96;104919;1263;74859;-68
2024/02/12 02:44:35;;;;;;;25.30;17.50;;;;;;;5.57;93.12;99130.42;108389;1260;138922;-68
2024/02/12 02:47:04;;;;;;;34.60;25.10;;;;;;;5.57;93.29;99127.29;104979;1260;74710;-70
2024/02/12 02:49:31;;;;;;;38.60;26.70;;;;;;;5.58;93.37;99132.69;105118;1260;62608;-68
2024/02/12 02:51:58;;;;;;;36.70;27.30;;;;;;;5.57;93.39;99129.73;104809;1261;139208;-69
2024/02/12 02:54:25;;;;;;;37.10;26.40;;;;;;;5.58;93.40;99129.92;104857;1260;77111;-70
2024/02/12 02:56:52;;;;;;;33.60;24.10;;;;;;;5.55;93.42;99130.74;104700;1255;138690;-69
2024/02/12 02:59:20;;;;;;;29.60;22.40;;;;;;;5.54;93.55;99128.29;105127;1260;72417;-68
2024/02/12 03:01:47;;;;;;;33.40;22.00;;;;;;;5.51;93.28;99127.00;104731;1260;139033;-68
2024/02/12 03:04:14;;;;;;;31.40;22.30;;;;;;;5.49;93.38;99125.40;106779;1260;62592;-69
2024/02/12 03:06:41;;;;;;;32.00;22.70;;;;;;;5.48;93.53;99126.08;104852;1260;74114;-69
2024/02/12 03:09:07;;;;;;;28.30;19.90;;;;;;;5.49;93.61;99124.70;108511;1258;139420;-69
2024/02/12 03:11:37;;;;;;;23.40;17.90;;;;;;;5.50;93.55;99128.20;104909;1261;71870;-69
2024/02/12 03:14:04;;;;;;;27.20;20.60;;;;;;;5.47;93.49;99128.50;105005;1259;139209;-68
2024/02/12 03:16:32;;;;;;;27.10;19.10;;;;;;;5.45;93.54;99129.15;105222;1267;62044;-68
2024/02/12 03:19:00;;;;;;;28.20;18.90;;;;;;;5.43;93.42;99128.61;105042;1260;74176;-69
2024/02/12 03:21:27;;;;;;;28.70;17.90;;;;;;;5.42;93.52;99130.84;105025;1254;138875;-69
2024/02/12 03:23:54;;;;;;;27.50;19.20;;;;;;;5.40;93.48;99131.15;104928;1260;73889;-69
2024/02/12 03:26:21;;;;;;;27.50;17.10;;;;;;;5.38;93.61;99128.84;104876;1263;139274;-69
2024/02/12 03:28:49;;;;;;;27.90;18.70;;;;;;;5.40;93.77;99128.17;105091;1254;62216;-70
2024/02/12 03:31:16;;;;;;;28.10;19.20;;;;;;;5.39;93.81;99125.55;108261;1254;76374;-70
2024/02/12 03:33:44;;;;;;;29.20;18.00;;;;;;;5.41;93.88;99129.23;104736;1260;139289;-69
2024/02/12 03:36:11;;;;;;;27.50;18.80;;;;;;;5.42;93.88;99125.79;105112;1254;73671;-69
2024/02/12 03:38:38;;;;;;;26.20;18.10;;;;;;;5.42;93.83;99128.58;104731;1260;139416;-69
2024/02/12 03:41:05;;;;;;;26.50;19.00;;;;;;;5.45;93.95;99126.89;104860;1262;62463;-72
2024/02/12 03:43:32;;;;;;;26.80;18.40;;;;;;;5.46;94.02;99125.50;106995;1254;74900;-70
2024/02/12 03:45:59;;;;;;;26.20;18.10;;;;;;;5.47;94.06;99125.20;104966;1254;139235;-70
2024/02/12 04:02:13;;;;;;;21.80;16.10;;;;;;;5.53;94.07;99115.73;104985;1254;138893;-68
2024/02/12 04:04:41;;;;;;;20.90;16.00;;;;;;;5.51;93.92;99115.17;104897;1258;62159;-69
2024/02/12 04:07:08;;;;;;;19.30;16.10;;;;;;;5.49;93.96;99117.22;107663;1254;60862;-68
2024/02/12 04:09:41;;;;;;;20.80;15.10;;;;;;;5.49;94.05;99114.95;105618;1257;139142;-69
2024/02/12 04:12:11;;;;;;;23.00;15.20;;;;;;;5.50;94.15;99117.92;108316;1257;66326;-69
2024/02/12 04:14:44;;;;;;;20.50;15.40;;;;;;;5.51;94.07;99117.96;104931;1254;139067;-70
2024/02/12 04:17:14;;;;;;;19.50;15.50;;;;;;;5.52;93.97;99120.91;104924;1261;62063;-70
2024/02/12 04:19:42;;;;;;;20.70;15.10;;;;;;;5.54;94.12;99122.37;105065;1258;62051;-69
2024/02/12 04:22:09;;;;;;;23.90;16.10;;;;;;;5.56;94.06;99123.96;107848;1254;139165;-70
2024/02/12 04:24:42;;;;;;;26.50;17.30;;;;;;;5.60;94.19;99120.04;106775;1260;66767;-70
2024/02/12 04:27:10;;;;;;;23.50;16.30;;;;;;;5.63;94.08;99119.05;107015;1254;138587;-70
2024/02/12 04:29:38;;;;;;;21.30;16.10;;;;;;;5.63;93.94;99116.25;108947;1254;59806;-68
2024/02/12 04:32:11;;;;;;;21.30;14.60;;;;;;;5.63;93.93;99116.27;108044;1254;138909;-69
2024/02/12 04:34:39;;;;;;;22.60;16.10;;;;;;;5.65;93.85;99113.87;104986;1254;75325;-68
2024/02/12 04:37:07;;;;;;;21.40;14.80;;;;;;;5.66;93.83;99113.36;109232;1254;66905;-69
2024/02/12 04:39:33;;;;;;;22.90;16.00;;;;;;;5.62;93.56;99109.80;107776;1260;138794;-68
2024/02/12 04:42:01;;;;;;;19.30;14.40;;;;;;;5.59;93.50;99107.15;105064;1256;62040;-69
2024/02/12 04:44:28;;;;;;;21.60;16.00;;;;;;;5.57;93.53;99103.27;104999;1260;139258;-69
2024/02/12 04:46:58;;;;;;;23.50;14.60;;;;;;;5.57;93.59;99106.92;105216;1254;76586;-69
2024/02/12 04:49:26;;;;;;;23.50;16.30;;;;;;;5.59;93.71;99105.75;106084;1254;65420;-69
2024/02/12 04:51:53;;;;;;;23.00;15.00;;;;;;;5.59;93.62;99106.43;105051;1260;138937;-70
2024/02/12 04:54:21;;;;;;;23.40;16.10;;;;;;;5.57;93.73;99104.32;106806;1256;62194;-69
2024/02/12 04:56:49;;;;;;;21.30;15.10;;;;;;;5.59;93.85;99103.86;105100;1255;138903;-68
2024/02/12 04:59:16;;;;;;;24.70;16.40;;;;;;;5.61;93.82;99105.28;105221;1254;73981;-69
2024/02/12 05:01:43;;;;;;;20.30;14.70;;;;;;;5.61;93.91;99108.77;105038;1259;64740;-69
2024/02/12 05:04:10;;;;;;;21.90;14.90;;;;;;;5.62;93.92;99106.86;105035;1261;138639;-69
2024/02/12 05:06:37;;;;;;;23.20;16.20;;;;;;;5.64;94.02;99107.40;104867;1258;62136;-69
2024/02/12 05:09:04;;;;;;;21.90;15.20;;;;;;;5.64;93.85;99107.42;104801;1254;138943;-68
2024/02/12 05:11:32;;;;;;;21.50;15.40;;;;;;;5.63;93.84;99107.91;105051;1260;75301;-69
2024/02/12 05:13:59;;;;;;;24.30;15.70;;;;;;;5.62;93.79;99106.50;105105;1258;139081;-68
2024/02/12 05:16:35;;;;;;;26.60;15.40;;;;;;;5.61;93.87;99107.54;104797;1262;73459;-69
2024/02/12 05:24:33;;;;;;;23.70;15.40;;;;;;;5.62;93.99;99107.72;105246;1259;75967;-68
2024/02/12 05:27:00;;;;;;;23.50;15.20;;;;;;;5.67;94.12;99111.45;104989;1260;138945;-69
2024/02/12 05:29:27;;;;;;;30.00;15.10;;;;;;;5.69;94.10;99111.16;105767;1254;72534;-69
2024/02/12 05:31:54;;;;;;;23.60;15.80;;;;;;;5.71;94.01;99107.89;108739;1254;139802;-67
2024/02/12 05:34:21;;;;;;;22.00;15.40;;;;;;;5.72;94.04;99110.33;104890;1254;62058;-69
2024/02/12 05:36:49;;;;;;;21.80;16.00;;;;;;;5.72;93.88;99109.82;105048;1255;75864;-69
2024/02/12 05:39:16;;;;;;;23.50;16.80;;;;;;;5.74;93.97;99114.20;105062;1260;139075;-69
2024/02/12 05:41:43;;;;;;;22.60;16.10;;;;;;;5.74;93.97;99110.38;105153;1260;72121;-69
2024/02/12 05:44:10;;;;;;;24.10;16.20;;;;;;;5.74;93.94;99111.41;104716;1254;139177;-68
2024/02/12 05:46:37;;;;;;;32.00;18.20;;;;;;;5.75;93.96;99115.63;104902;1260;62066;-69
2024/02/12 05:49:06;;;;;;;31.10;17.60;;;;;;;5.77;93.93;99115.48;105168;1259;74881;-69
2024/02/12 05:51:33;;;;;;;27.60;17.40;;;;;;;5.76;93.89;99117.36;105100;1254;139544;-69
2024/02/12 05:54:01;;;;;;;27.20;18.20;;;;;;;5.77;93.89;99126.61;109164;1254;73690;-69
2024/02/12 05:56:28;;;;;;;28.50;17.50;;;;;;;5.76;93.85;99125.54;108895;1254;139063;-68
2024/02/12 05:58:55;;;;;;;27.50;18.70;;;;;;;5.75;93.81;99127.45;106968;1254;62076;-69
2024/02/12 06:01:23;;;;;;;28.20;18.50;;;;;;;5.76;93.77;99127.65;104874;1260;75971;-68
2024/02/12 06:03:50;;;;;;;29.40;18.00;;;;;;;5.76;93.85;99129.38;105010;1254;138933;-69
2024/02/12 06:06:16;;;;;;;30.60;18.80;;;;;;;5.78;93.85;99129.40;108910;1254;73233;-69
2024/02/12 06:08:43;;;;;;;31.00;18.40;;;;;;;5.79;93.85;99129.09;106119;1257;139364;-69
2024/02/12 06:11:10;;;;;;;30.00;18.70;;;;;;;5.79;93.59;99127.52;104841;1257;62245;-69
2024/02/12 06:13:37;;;;;;;34.70;20.20;;;;;;;5.79;93.78;99130.12;105054;1254;76450;-69
2024/02/12 06:16:04;;;;;;;31.90;19.60;;;;;;;5.79;93.83;99126.31;104803;1263;138705;-68
2024/02/12 06:18:31;;;;;;;37.80;20.00;;;;;;;5.83;93.89;99129.16;106145;1254;73698;-69
2024/02/12 06:20:58;;;;;;;30.30;18.50;;;;;;;5.84;93.93;99129.34;105160;1259;138725;-68
2024/02/12 06:23:25;;;;;;;29.80;18.50;;;;;;;5.84;93.86;99127.61;104924;1254;62460;-69
2024/02/12 06:25:52;;;;;;;33.30;19.60;;;;;;;5.80;93.82;99128.59;107281;1254;139098;-67
2024/02/12 06:28:19;;;;;;;32.60;18.60;;;;;;;5.82;93.90;99129.32;105116;1259;67203;-68
2024/02/12 06:30:46;;;;;;;32.70;17.40;;;;;;;5.84;93.96;99127.63;105073;1254;72156;-69
2024/02/12 06:33:13;;;;;;;32.00;18.80;;;;;;;5.81;93.80;99126.15;104845;1260;138789;-68
2024/02/12 06:35:40;;;;;;;30.60;19.40;;;;;;;5.78;93.78;99129.06;104890;1260;62216;-68
2024/02/12 06:38:07;;;;;;;29.60;18.30;;;;;;;5.76;93.83;99129.55;104957;1254;139001;-68
2024/02/12 06:40:34;;;;;;;38.80;20.50;;;;;;;5.76;93.94;99129.20;105108;1260;65293;-69
2024/02/12 06:43:04;;;;;;;33.90;20.40;;;;;;;5.77;93.99;99129.92;105218;1259;73815;-69
2024/02/12 06:45:32;;;;;;;33.30;19.30;;;;;;;5.79;94.15;99133.09;104902;1259;139598;-70
2024/02/12 06:47:58;;;;;;;35.00;21.70;;;;;;;5.79;94.07;99132.05;107514;1254;62165;-68
2024/02/12 06:50:25;;;;;;;38.90;21.30;;;;;;;5.77;94.08;99134.98;105115;1254;139575;-69
2024/02/12 06:52:52;;;;;;;34.40;21.10;;;;;;;5.79;94.13;99135.54;104914;1260;67031;-69
2024/02/12 06:55:21;;;;;;;36.20;21.30;;;;;;;5.81;94.23;99135.55;105059;1260;73206;-69
2024/02/12 06:57:48;;;;;;;30.00;20.60;;;;;;;5.83;94.19;99138.39;105114;1254;138903;-69
2024/02/12 07:00:16;;;;;;;41.80;22.40;;;;;;;5.80;94.05;99139.20;105047;1254;62159;-69
2024/02/12 07:02:43;;;;;;;39.20;23.20;;;;;;;5.80;94.11;99136.06;108974;1254;138910;-69
2024/02/12 07:05:12;;;;;;;34.60;21.40;;;;;;;5.81;94.25;99137.83;104997;1254;67103;-69
2024/02/12 07:07:39;;;;;;;36.00;21.30;;;;;;;5.83;94.36;99139.25;104986;1254;72538;-69
2024/02/12 07:10:09;;;;;;;34.30;21.10;;;;;;;5.86;94.41;99140.52;104876;1257;138715;-70
2024/02/12 07:12:38;;;;;;;34.80;19.80;;;;;;;5.88;94.44;99140.73;106103;1254;61987;-69
2024/02/12 07:15:10;;;;;;;35.40;20.60;;;;;;;5.86;94.23;99142.96;104958;1256;138896;-68
2024/02/12 07:17:37;;;;;;;39.20;22.90;;;;;;;5.85;94.25;99143.82;104966;1254;64926;-69
2024/02/12 07:20:08;;;;;;;43.60;22.10;;;;;;;5.84;94.40;99142.07;105017;1255;139392;-68
2024/02/12 07:22:36;;;;;;;40.40;21.70;;;;;;;5.84;94.42;99143.28;106751;1255;62143;-69
2024/02/12 07:25:04;;;;;;;52.90;29.60;;;;;;;5.83;94.39;99145.86;104851;1254;62060;-68
2024/02/12 07:27:31;;;;;;;207.30;88.60;;;;;;;5.81;94.31;99146.19;105051;1254;138860;-68
2024/02/12 07:29:58;;;;;;;117.20;55.00;;;;;;;5.81;94.51;99144.98;104895;1262;66575;-68
2024/02/12 07:32:25;;;;;;;146.60;71.00;;;;;;;5.82;94.53;99140.98;104947;1257;139426;-68
2024/02/12 07:34:52;;;;;;;110.60;55.60;;;;;;;5.81;94.37;99140.79;104983;1256;62104;-68
2024/02/12 07:37:19;;;;;;;56.70;29.70;;;;;;;5.80;94.43;99141.65;104910;1260;62054;-69
2024/02/12 07:39:46;;;;;;;63.00;35.80;;;;;;;5.81;94.51;99142.86;104889;1260;139207;-69
2024/02/12 07:42:13;;;;;;;72.00;36.60;;;;;;;5.81;94.55;99145.30;105001;1259;67284;-69
2024/02/12 07:44:41;;;;;;;56.40;29.70;;;;;;;5.81;94.54;99146.38;105011;1257;139337;-68
2024/02/12 07:47:07;;;;;;;68.80;33.40;;;;;;;5.79;94.52;99145.63;106650;1256;62098;-73
2024/02/12 07:49:37;;;;;;;51.00;29.90;;;;;;;5.84;94.85;99144.32;104941;1256;61978;-68
2024/02/12 07:52:04;;;;;;;66.60;40.20;;;;;;;5.87;94.89;99145.77;105730;1256;139897;-68
2024/02/12 07:54:33;;;;;;;109.10;67.60;;;;;;;5.88;94.64;99147.53;105133;1259;66819;-69
2024/02/12 07:57:00;;;;;;;73.40;38.30;;;;;;;5.85;94.60;99146.95;105059;1259;138980;-70
2024/02/12 07:59:27;;;;;;;79.20;40.10;;;;;;;5.86;94.54;99144.52;105173;1259;62162;-68
2024/02/12 08:01:54;;;;;;;75.40;39.10;;;;;;;5.85;94.58;99149.22;104999;1259;139005;-71
2024/02/12 08:04:21;;;;;;;62.80;35.90;;;;;;;5.84;94.58;99145.38;104950;1260;76399;-68
2024/02/12 08:06:48;;;;;;;53.00;28.10;;;;;;;5.85;94.63;99148.52;105706;1260;67693;-69
2024/02/12 08:09:17;;;;;;;60.80;40.20;;;;;;;5.84;94.60;99150.77;104921;1259;138904;-69
2024/02/12 08:11:44;;;;;;;49.70;29.10;;;;;;;5.84;94.58;99151.64;108982;1256;60016;-68
2024/02/12 08:14:11;;;;;;;58.90;39.50;;;;;;;5.87;94.73;99150.11;108916;1255;139016;-67
2024/02/12 08:16:42;;;;;;;47.70;30.20;;;;;;;5.92;94.75;99149.50;108984;1256;76235;-69
2024/02/12 08:19:09;;;;;;;56.60;35.80;;;;;;;5.96;94.80;99146.32;105506;1256;65842;-69
2024/02/12 08:21:36;;;;;;;46.20;26.90;;;;;;;6.02;94.77;99148.88;104768;1261;138758;-70
2024/02/12 08:24:03;;;;;;;51.00;29.30;;;;;;;6.05;94.57;99146.99;104969;1254;62697;-70
2024/02/12 08:26:30;;;;;;;69.10;49.80;;;;;;;6.09;94.64;99151.41;105058;1259;139161;-70
2024/02/12 08:29:00;;;;;;;67.10;44.40;;;;;;;6.14;94.66;99150.11;108964;1254;76061;-69
2024/02/12 08:31:27;;;;;;;52.30;35.90;;;;;;;6.13;94.42;99154.10;108934;1254;67636;-69
2024/02/12 08:33:56;;;;;;;43.30;30.60;;;;;;;6.14;94.35;99154.98;106243;1255;139004;-69
2024/02/12 08:36:23;;;;;;;65.10;49.60;;;;;;;6.15;94.36;99154.48;104952;1255;62041;-69
2024/02/12 08:38:50;;;;;;;37.70;24.30;;;;;;;6.19;94.48;99158.20;104865;1254;138809;-69
2024/02/12 08:41:22;;;;;;;54.50;36.00;;;;;;;6.23;94.53;99156.70;104908;1254;75257;-70
2024/02/12 08:43:50;;;;;;;57.10;39.90;;;;;;;6.25;94.38;99161.25;109144;1254;139208;-68
2024/02/12 08:46:18;;;;;;;43.70;30.10;;;;;;;6.24;94.31;99163.35;106463;1254;73624;-69
2024/02/12 08:48:45;;;;;;;46.60;33.00;;;;;;;6.28;94.41;99164.77;107738;1257;62075;-69
2024/02/12 08:51:12;;;;;;;49.70;38.60;;;;;;;6.29;94.33;99165.67;105041;1254;138864;-69
2024/02/12 08:53:45;;;;;;;41.50;31.50;;;;;;;6.25;94.10;99165.44;105137;1260;76118;-69
2024/02/12 08:56:17;;;;;;;42.50;27.40;;;;;;;6.24;94.10;99165.41;105667;1260;139531;-68
2024/02/12 08:58:44;;;;;;;43.30;24.90;;;;;;;6.23;94.17;99165.23;106346;1257;73015;-69
2024/02/12 09:01:11;;;;;;;51.70;40.60;;;;;;;6.25;94.32;99165.44;109130;1254;60268;-69
2024/02/12 09:03:42;;;;;;;41.50;24.90;;;;;;;6.29;94.48;99164.46;105879;1256;138785;-69
2024/02/12 09:06:12;;;;;;;39.50;28.60;;;;;;;6.33;94.50;99169.40;106058;1254;76406;-69
2024/02/12 09:08:40;;;;;;;34.50;25.00;;;;;;;6.39;94.64;99169.68;105258;1254;138841;-68
2024/02/12 09:11:07;;;;;;;48.50;35.00;;;;;;;6.40;94.50;99172.84;109180;1254;73469;-68
2024/02/12 09:13:35;;;;;;;44.80;28.50;;;;;;;6.41;94.48;99173.36;105203;1256;62553;-69
2024/02/12 09:16:02;;;;;;;36.20;24.00;;;;;;;6.41;94.44;99174.42;109126;1258;139384;-68
2024/02/12 09:18:29;;;;;;;38.60;24.70;;;;;;;6.41;94.38;99173.91;108712;1256;76731;-69
2024/02/12 09:20:56;;;;;;;39.40;25.50;;;;;;;6.45;94.51;99177.45;105031;1259;138944;-68
2024/02/12 09:23:23;;;;;;;42.70;29.90;;;;;;;6.48;94.56;99176.45;104765;1255;291877;-68
2024/02/12 09:25:50;;;;;;;31.20;23.40;;;;;;;6.52;94.64;99176.00;105041;1254;139035;-69
2024/02/12 09:28:17;;;;;;;34.80;23.50;;;;;;;6.54;94.56;99175.66;107928;1257;60145;-69
2024/02/12 09:30:45;;;;;;;37.80;26.20;;;;;;;6.57;94.56;99177.45;105141;1259;76163;-69
2024/02/12 09:33:12;;;;;;;36.10;27.70;;;;;;;6.60;94.57;99174.54;105140;1254;138922;-68
2024/02/12 09:35:39;;;;;;;40.00;30.00;;;;;;;6.60;94.45;99175.07;105212;1254;72024;-68
2024/02/12 09:38:06;;;;;;;29.10;21.80;;;;;;;6.62;94.44;99174.23;104902;1258;139219;-67
2024/02/12 09:40:33;;;;;;;32.40;22.30;;;;;;;6.60;94.30;99175.95;104915;1254;62204;-68
2024/02/12 09:43:00;;;;;;;30.60;20.00;;;;;;;6.61;94.40;99177.70;104793;1254;76637;-69
2024/02/12 09:45:28;;;;;;;35.60;21.10;;;;;;;6.62;94.36;99178.06;104700;1262;139205;-69
2024/02/12 09:47:55;;;;;;;36.70;20.90;;;;;;;6.62;94.29;99179.27;106882;1256;71355;-68
2024/02/12 09:50:22;;;;;;;35.20;21.40;;;;;;;6.60;94.15;99182.39;105065;1255;139460;-68
2024/02/12 09:52:49;;;;;;;34.50;23.20;;;;;;;6.61;94.30;99181.17;104774;1254;62065;-68
2024/02/12 09:55:16;;;;;;;39.40;22.40;;;;;;;6.65;94.40;99184.55;105255;1254;76041;-69
2024/02/12 09:57:43;;;;;;;34.60;23.90;;;;;;;6.70;94.62;99185.51;104869;1260;139657;-69
2024/02/12 10:00:11;;;;;;;34.80;22.50;;;;;;;6.77;94.58;99185.95;104891;1254;71423;-68
2024/02/12 10:02:39;;;;;;;29.10;20.90;;;;;;;6.81;94.52;99186.55;105493;1257;139163;-68
2024/02/12 10:05:11;;;;;;;31.30;19.80;;;;;;;6.84;94.35;99184.14;104815;1254;62052;-69
2024/02/12 10:07:41;;;;;;;35.20;23.50;;;;;;;6.90;94.52;99187.38;104860;1261;76060;-69
2024/02/12 10:10:08;;;;;;;30.00;18.60;;;;;;;6.92;94.20;99190.37;105029;1259;138496;-69
2024/02/12 10:12:39;;;;;;;38.50;23.10;;;;;;;6.89;93.99;99186.48;105396;1254;74052;-68
2024/02/12 10:15:07;;;;;;;34.80;21.00;;;;;;;6.89;94.04;99186.14;105032;1258;139374;-69
2024/02/12 10:17:34;;;;;;;28.20;19.90;;;;;;;6.92;94.03;99186.70;107166;1259;60037;-68
2024/02/12 10:20:00;;;;;;;28.40;20.80;;;;;;;6.91;93.98;99186.69;104882;1254;139275;-68
2024/02/12 10:22:27;;;;;;;30.10;19.60;;;;;;;6.92;93.99;99185.48;104896;1260;66795;-60
2024/02/12 10:24:55;;;;;;;31.70;21.00;;;;;;;6.92;94.04;99189.84;104950;1260;73985;-61
2024/02/12 10:27:22;;;;;;;33.10;20.40;;;;;;;6.95;94.03;99189.55;105151;1256;139216;-61
2024/02/12 10:29:58;;;;;;;34.10;20.30;;;;;;;6.98;94.08;99185.22;104903;1257;62072;-60
2024/02/12 10:32:25;;;;;;;34.30;21.70;;;;;;;7.02;94.10;99187.20;105751;1258;139020;-60
2024/02/12 10:34:53;;;;;;;30.00;19.90;;;;;;;7.07;94.23;99184.64;105121;1260;66647;-60
2024/02/12 10:37:20;;;;;;;31.60;20.60;;;;;;;7.12;94.28;99184.54;107895;1256;71337;-60
2024/02/12 10:39:47;;;;;;;31.10;19.80;;;;;;;7.17;94.27;99179.02;104953;1254;138808;-60
2024/02/12 10:42:14;;;;;;;27.90;19.50;;;;;;;7.18;94.04;99176.95;105218;1257;62207;-70
2024/02/12 10:44:43;;;;;;;28.20;19.10;;;;;;;7.15;93.72;99181.80;105135;1254;138896;-61
2024/02/12 10:47:10;;;;;;;37.00;21.70;;;;;;;7.12;93.75;99182.79;104893;1254;64834;-61
2024/02/12 10:49:38;;;;;;;37.40;23.00;;;;;;;7.11;93.83;99181.73;104992;1260;73503;-61
2024/02/12 10:52:05;;;;;;;39.50;23.50;;;;;;;7.15;94.10;99187.71;105229;1259;138780;-59
2024/02/12 10:54:32;;;;;;;40.30;25.80;;;;;;;7.18;94.04;99182.52;105204;1254;62030;-61
2024/02/12 10:57:00;;;;;;;51.70;28.10;;;;;;;7.20;94.11;99181.16;105043;1254;138985;-59
2024/02/12 10:59:27;;;;;;;45.30;29.70;;;;;;;7.23;94.07;99181.20;105095;1254;66962;-60
2024/02/12 11:01:54;;;;;;;43.90;26.90;;;;;;;7.25;93.95;99181.93;104797;1257;139202;-62
2024/02/12 11:04:25;;;;;;;47.00;26.00;;;;;;;7.27;93.93;99182.45;105059;1262;62042;-60
2024/02/12 11:06:52;;;;;;;42.90;23.70;;;;;;;7.25;93.70;99181.23;105058;1254;62492;-60
2024/02/12 11:09:19;;;;;;;47.10;24.70;;;;;;;7.26;93.73;99185.42;105011;1254;139578;-60
2024/02/12 11:11:46;;;;;;;42.30;23.60;;;;;;;7.28;93.81;99183.36;105049;1262;65684;-62
2024/02/12 11:14:14;;;;;;;35.60;21.70;;;;;;;7.33;93.83;99182.73;105078;1258;138942;-60
2024/02/12 11:16:41;;;;;;;32.60;20.90;;;;;;;7.37;93.77;99181.73;105832;1254;62085;-61
2024/02/12 11:19:17;;;;;;;36.10;22.80;;;;;;;7.38;93.57;99182.62;105089;1254;62172;-61
2024/02/12 11:21:44;;;;;;;33.50;22.70;;;;;;;7.43;93.60;99184.60;104874;1257;138991;-61
2024/02/12 11:24:12;;;;;;;32.30;21.50;;;;;;;7.48;93.57;99180.64;104974;1262;66406;-61
2024/02/12 11:26:40;;;;;;;32.90;22.00;;;;;;;7.51;93.49;99184.35;108788;1258;140907;-59
2024/02/12 11:29:08;;;;;;;35.10;21.50;;;;;;;7.53;93.20;99184.55;105120;1257;62173;-60
2024/02/12 11:31:37;;;;;;;30.10;19.50;;;;;;;7.50;92.97;99184.86;107059;1258;61394;-59
2024/02/12 11:34:12;;;;;;;32.40;19.80;;;;;;;7.52;92.91;99187.14;105081;1254;138988;-59
2024/02/12 11:36:40;;;;;;;35.80;21.20;;;;;;;7.49;92.78;99184.49;105163;1254;65038;-61